Terminal Aerodrome Forecast
Issued by NWS

Home | Current Version | Previous Version | Text Only | Print | Product List | Glossary On
Versions: 1 2 3 4 5 6 7 8 9 10 11 12
000
FTUS43 KMPX 062320
TAFRWF
TAF
KRWF 062320Z 0700/0724 27007KT P6SM SCT250
     FM070200 22010KT P6SM SCT070 BKN110
     FM070800 29014G24KT P6SM SCT025=

USA.gov is the U.S. government's official web portal to all federal, state and local government web resources and services.